sensor_id;sensor_type;location;lat;lon;timestamp;P1;durP1;ratioP1;P2;durP2;ratioP2
17091;SDS011;8661;45.700;4.880;2023-04-08T00:01:16;5.83;;;2.80;;
17091;SDS011;8661;45.700;4.880;2023-04-08T00:03:43;4.50;;;2.90;;
17091;SDS011;8661;45.700;4.880;2023-04-08T00:06:10;4.00;;;2.93;;
17091;SDS011;8661;45.700;4.880;2023-04-08T00:08:37;4.90;;;2.70;;
17091;SDS011;8661;45.700;4.880;2023-04-08T00:11:04;5.33;;;2.77;;
17091;SDS011;8661;45.700;4.880;2023-04-08T00:13:31;4.93;;;2.87;;
17091;SDS011;8661;45.700;4.880;2023-04-08T00:15:59;6.17;;;3.37;;
17091;SDS011;8661;45.700;4.880;2023-04-08T00:18:27;5.57;;;3.20;;
17091;SDS011;8661;45.700;4.880;2023-04-08T00:20:53;6.93;;;3.20;;
17091;SDS011;8661;45.700;4.880;2023-04-08T00:23:21;5.00;;;3.00;;
17091;SDS011;8661;45.700;4.880;2023-04-08T00:25:48;4.10;;;2.80;;
17091;SDS011;8661;45.700;4.880;2023-04-08T00:28:15;6.23;;;3.47;;
17091;SDS011;8661;45.700;4.880;2023-04-08T00:30:42;5.13;;;3.00;;
17091;SDS011;8661;45.700;4.880;2023-04-08T00:33:10;5.50;;;3.87;;
17091;SDS011;8661;45.700;4.880;2023-04-08T00:35:37;6.37;;;4.03;;
17091;SDS011;8661;45.700;4.880;2023-04-08T00:38:04;5.07;;;3.40;;
17091;SDS011;8661;45.700;4.880;2023-04-08T00:40:32;5.73;;;2.70;;
17091;SDS011;8661;45.700;4.880;2023-04-08T00:42:59;4.77;;;2.60;;
17091;SDS011;8661;45.700;4.880;2023-04-08T00:45:26;5.27;;;2.90;;
17091;SDS011;8661;45.700;4.880;2023-04-08T00:47:53;3.80;;;2.90;;
17091;SDS011;8661;45.700;4.880;2023-04-08T00:50:22;4.27;;;3.17;;
17091;SDS011;8661;45.700;4.880;2023-04-08T00:52:50;4.60;;;3.17;;
17091;SDS011;8661;45.700;4.880;2023-04-08T00:55:17;3.70;;;2.90;;
17091;SDS011;8661;45.700;4.880;2023-04-08T00:57:43;4.07;;;2.70;;
17091;SDS011;8661;45.700;4.880;2023-04-08T01:00:11;5.33;;;2.60;;
17091;SDS011;8661;45.700;4.880;2023-04-08T01:02:41;5.93;;;2.87;;
17091;SDS011;8661;45.700;4.880;2023-04-08T01:05:13;4.03;;;2.77;;
17091;SDS011;8661;45.700;4.880;2023-04-08T01:07:48;3.23;;;2.70;;
17091;SDS011;8661;45.700;4.880;2023-04-08T01:10:17;6.50;;;3.37;;
17091;SDS011;8661;45.700;4.880;2023-04-08T01:12:48;8.43;;;2.70;;
17091;SDS011;8661;45.700;4.880;2023-04-08T01:15:19;5.67;;;2.90;;
17091;SDS011;8661;45.700;4.880;2023-04-08T01:17:47;4.77;;;3.10;;
17091;SDS011;8661;45.700;4.880;2023-04-08T01:20:18;5.03;;;2.60;;
17091;SDS011;8661;45.700;4.880;2023-04-08T01:22:54;3.97;;;2.60;;
17091;SDS011;8661;45.700;4.880;2023-04-08T01:25:29;6.83;;;2.80;;
17091;SDS011;8661;45.700;4.880;2023-04-08T01:27:59;4.40;;;3.03;;
17091;SDS011;8661;45.700;4.880;2023-04-08T01:30:28;5.80;;;2.60;;
17091;SDS011;8661;45.700;4.880;2023-04-08T01:32:56;9.03;;;3.27;;
17091;SDS011;8661;45.700;4.880;2023-04-08T01:35:24;4.40;;;2.80;;
17091;SDS011;8661;45.700;4.880;2023-04-08T01:37:52;4.97;;;3.33;;
17091;SDS011;8661;45.700;4.880;2023-04-08T01:40:20;5.83;;;2.90;;
17091;SDS011;8661;45.700;4.880;2023-04-08T01:42:47;4.23;;;2.43;;
17091;SDS011;8661;45.700;4.880;2023-04-08T01:45:18;4.00;;;2.87;;
17091;SDS011;8661;45.700;4.880;2023-04-08T01:47:46;4.93;;;2.70;;
17091;SDS011;8661;45.700;4.880;2023-04-08T01:50:15;7.70;;;3.50;;
17091;SDS011;8661;45.700;4.880;2023-04-08T01:52:42;7.03;;;3.80;;
17091;SDS011;8661;45.700;4.880;2023-04-08T01:55:11;5.53;;;3.43;;
17091;SDS011;8661;45.700;4.880;2023-04-08T01:57:38;4.27;;;2.87;;
17091;SDS011;8661;45.700;4.880;2023-04-08T02:00:09;4.07;;;3.40;;
17091;SDS011;8661;45.700;4.880;2023-04-08T02:02:40;3.87;;;3.00;;
17091;SDS011;8661;45.700;4.880;2023-04-08T02:05:08;5.53;;;3.23;;
17091;SDS011;8661;45.700;4.880;2023-04-08T02:07:35;4.97;;;3.37;;
17091;SDS011;8661;45.700;4.880;2023-04-08T02:10:02;4.00;;;2.93;;
17091;SDS011;8661;45.700;4.880;2023-04-08T02:12:30;4.17;;;3.03;;
17091;SDS011;8661;45.700;4.880;2023-04-08T02:14:59;5.60;;;3.23;;
17091;SDS011;8661;45.700;4.880;2023-04-08T02:17:29;6.40;;;3.57;;
17091;SDS011;8661;45.700;4.880;2023-04-08T02:20:04;7.60;;;3.97;;
17091;SDS011;8661;45.700;4.880;2023-04-08T02:22:36;7.87;;;3.13;;
17091;SDS011;8661;45.700;4.880;2023-04-08T02:25:07;4.50;;;2.93;;
17091;SDS011;8661;45.700;4.880;2023-04-08T02:27:40;5.83;;;2.97;;
17091;SDS011;8661;45.700;4.880;2023-04-08T02:30:10;3.63;;;2.40;;
17091;SDS011;8661;45.700;4.880;2023-04-08T02:32:38;4.27;;;2.63;;
17091;SDS011;8661;45.700;4.880;2023-04-08T02:35:07;4.87;;;2.90;;
17091;SDS011;8661;45.700;4.880;2023-04-08T02:37:37;5.93;;;3.00;;
17091;SDS011;8661;45.700;4.880;2023-04-08T02:40:09;4.70;;;2.93;;
17091;SDS011;8661;45.700;4.880;2023-04-08T02:42:48;4.23;;;2.50;;
17091;SDS011;8661;45.700;4.880;2023-04-08T02:45:15;3.47;;;2.70;;
17091;SDS011;8661;45.700;4.880;2023-04-08T02:47:42;3.50;;;2.60;;
17091;SDS011;8661;45.700;4.880;2023-04-08T02:50:11;5.93;;;2.50;;
17091;SDS011;8661;45.700;4.880;2023-04-08T02:52:38;5.47;;;3.00;;
17091;SDS011;8661;45.700;4.880;2023-04-08T02:55:05;2.97;;;2.50;;
17091;SDS011;8661;45.700;4.880;2023-04-08T02:57:34;3.47;;;2.73;;
17091;SDS011;8661;45.700;4.880;2023-04-08T03:00:01;5.97;;;2.97;;
17091;SDS011;8661;45.700;4.880;2023-04-08T03:02:29;3.13;;;2.83;;
17091;SDS011;8661;45.700;4.880;2023-04-08T03:04:56;8.03;;;3.30;;
17091;SDS011;8661;45.700;4.880;2023-04-08T03:07:24;7.57;;;2.93;;
17091;SDS011;8661;45.700;4.880;2023-04-08T03:09:52;5.80;;;3.20;;
17091;SDS011;8661;45.700;4.880;2023-04-08T03:12:20;3.73;;;2.60;;
17091;SDS011;8661;45.700;4.880;2023-04-08T03:14:47;4.47;;;2.80;;
17091;SDS011;8661;45.700;4.880;2023-04-08T03:17:14;5.40;;;3.20;;
17091;SDS011;8661;45.700;4.880;2023-04-08T03:19:41;4.87;;;2.80;;
17091;SDS011;8661;45.700;4.880;2023-04-08T03:22:08;4.27;;;2.67;;
17091;SDS011;8661;45.700;4.880;2023-04-08T03:24:36;6.63;;;3.20;;
17091;SDS011;8661;45.700;4.880;2023-04-08T03:27:04;4.73;;;2.77;;
17091;SDS011;8661;45.700;4.880;2023-04-08T03:29:32;4.40;;;2.80;;
17091;SDS011;8661;45.700;4.880;2023-04-08T03:31:59;3.47;;;2.93;;
17091;SDS011;8661;45.700;4.880;2023-04-08T03:34:26;5.37;;;3.30;;
17091;SDS011;8661;45.700;4.880;2023-04-08T03:36:53;8.40;;;3.63;;
17091;SDS011;8661;45.700;4.880;2023-04-08T03:39:20;5.97;;;3.53;;
17091;SDS011;8661;45.700;4.880;2023-04-08T03:41:49;6.23;;;3.63;;
17091;SDS011;8661;45.700;4.880;2023-04-08T03:44:15;4.60;;;3.30;;
17091;SDS011;8661;45.700;4.880;2023-04-08T03:46:42;6.63;;;3.80;;
17091;SDS011;8661;45.700;4.880;2023-04-08T03:49:09;5.47;;;3.90;;
17091;SDS011;8661;45.700;4.880;2023-04-08T03:51:36;6.60;;;3.80;;
17091;SDS011;8661;45.700;4.880;2023-04-08T03:54:03;6.63;;;3.50;;
17091;SDS011;8661;45.700;4.880;2023-04-08T03:56:31;5.40;;;3.53;;
17091;SDS011;8661;45.700;4.880;2023-04-08T03:59:00;5.17;;;3.50;;
17091;SDS011;8661;45.700;4.880;2023-04-08T04:01:27;5.00;;;3.57;;
17091;SDS011;8661;45.700;4.880;2023-04-08T04:03:54;6.67;;;3.37;;
17091;SDS011;8661;45.700;4.880;2023-04-08T04:06:21;4.27;;;3.43;;
17091;SDS011;8661;45.700;4.880;2023-04-08T04:08:48;5.13;;;3.53;;
17091;SDS011;8661;45.700;4.880;2023-04-08T04:11:15;7.07;;;4.00;;
17091;SDS011;8661;45.700;4.880;2023-04-08T04:13:42;6.93;;;3.83;;
17091;SDS011;8661;45.700;4.880;2023-04-08T04:16:11;6.57;;;3.70;;
17091;SDS011;8661;45.700;4.880;2023-04-08T04:18:37;5.37;;;3.37;;
17091;SDS011;8661;45.700;4.880;2023-04-08T04:21:04;5.30;;;3.70;;
17091;SDS011;8661;45.700;4.880;2023-04-08T04:23:32;6.90;;;3.30;;
17091;SDS011;8661;45.700;4.880;2023-04-08T04:25:59;6.00;;;3.43;;
17091;SDS011;8661;45.700;4.880;2023-04-08T04:28:26;4.07;;;3.47;;
17091;SDS011;8661;45.700;4.880;2023-04-08T04:30:52;6.60;;;3.90;;
17091;SDS011;8661;45.700;4.880;2023-04-08T04:33:24;6.67;;;4.10;;
17091;SDS011;8661;45.700;4.880;2023-04-08T04:35:51;5.17;;;3.80;;
17091;SDS011;8661;45.700;4.880;2023-04-08T04:38:18;5.10;;;3.50;;
17091;SDS011;8661;45.700;4.880;2023-04-08T04:40:45;5.27;;;3.67;;
17091;SDS011;8661;45.700;4.880;2023-04-08T04:43:12;6.77;;;3.90;;
17091;SDS011;8661;45.700;4.880;2023-04-08T04:45:39;5.57;;;3.90;;
17091;SDS011;8661;45.700;4.880;2023-04-08T04:48:05;7.37;;;4.70;;
17091;SDS011;8661;45.700;4.880;2023-04-08T04:50:34;6.13;;;4.40;;
17091;SDS011;8661;45.700;4.880;2023-04-08T04:53:01;8.20;;;5.07;;
17091;SDS011;8661;45.700;4.880;2023-04-08T04:55:27;6.70;;;4.70;;
17091;SDS011;8661;45.700;4.880;2023-04-08T04:57:54;7.03;;;4.57;;
17091;SDS011;8661;45.700;4.880;2023-04-08T05:00:21;5.43;;;4.13;;
17091;SDS011;8661;45.700;4.880;2023-04-08T05:02:48;7.43;;;4.37;;
17091;SDS011;8661;45.700;4.880;2023-04-08T05:05:15;13.77;;;4.63;;
17091;SDS011;8661;45.700;4.880;2023-04-08T05:07:43;7.50;;;4.30;;
17091;SDS011;8661;45.700;4.880;2023-04-08T05:10:10;7.33;;;4.87;;
17091;SDS011;8661;45.700;4.880;2023-04-08T05:12:37;7.43;;;4.60;;
17091;SDS011;8661;45.700;4.880;2023-04-08T05:15:06;8.70;;;4.70;;
17091;SDS011;8661;45.700;4.880;2023-04-08T05:17:33;7.23;;;4.80;;
17091;SDS011;8661;45.700;4.880;2023-04-08T05:20:00;5.87;;;4.17;;
17091;SDS011;8661;45.700;4.880;2023-04-08T05:22:27;8.33;;;5.33;;
17091;SDS011;8661;45.700;4.880;2023-04-08T05:24:56;6.67;;;3.83;;
17091;SDS011;8661;45.700;4.880;2023-04-08T05:27:23;5.87;;;4.10;;
17091;SDS011;8661;45.700;4.880;2023-04-08T05:29:50;7.17;;;4.23;;
17091;SDS011;8661;45.700;4.880;2023-04-08T05:32:16;6.37;;;3.93;;
17091;SDS011;8661;45.700;4.880;2023-04-08T05:34:43;9.20;;;4.70;;
17091;SDS011;8661;45.700;4.880;2023-04-08T05:37:10;14.60;;;4.63;;
17091;SDS011;8661;45.700;4.880;2023-04-08T05:39:38;6.40;;;3.97;;
17091;SDS011;8661;45.700;4.880;2023-04-08T05:42:06;6.27;;;4.43;;
17091;SDS011;8661;45.700;4.880;2023-04-08T05:44:33;7.80;;;4.80;;
17091;SDS011;8661;45.700;4.880;2023-04-08T05:47:00;6.00;;;4.27;;
17091;SDS011;8661;45.700;4.880;2023-04-08T05:49:26;7.13;;;4.40;;
17091;SDS011;8661;45.700;4.880;2023-04-08T05:51:53;5.70;;;4.30;;
17091;SDS011;8661;45.700;4.880;2023-04-08T05:54:20;6.37;;;4.03;;
17091;SDS011;8661;45.700;4.880;2023-04-08T05:56:47;7.00;;;4.37;;
17091;SDS011;8661;45.700;4.880;2023-04-08T05:59:15;8.13;;;4.37;;
17091;SDS011;8661;45.700;4.880;2023-04-08T06:01:42;5.97;;;4.30;;
17091;SDS011;8661;45.700;4.880;2023-04-08T06:04:09;9.77;;;4.70;;
17091;SDS011;8661;45.700;4.880;2023-04-08T06:06:36;6.93;;;4.83;;
17091;SDS011;8661;45.700;4.880;2023-04-08T06:09:04;6.93;;;5.33;;
17091;SDS011;8661;45.700;4.880;2023-04-08T06:11:30;7.77;;;4.33;;
17091;SDS011;8661;45.700;4.880;2023-04-08T06:13:57;5.70;;;4.33;;
17091;SDS011;8661;45.700;4.880;2023-04-08T06:16:26;8.27;;;4.97;;
17091;SDS011;8661;45.700;4.880;2023-04-08T06:18:53;6.97;;;4.80;;
17091;SDS011;8661;45.700;4.880;2023-04-08T06:21:20;5.83;;;3.70;;
17091;SDS011;8661;45.700;4.880;2023-04-08T06:23:47;5.13;;;3.83;;
17091;SDS011;8661;45.700;4.880;2023-04-08T06:26:14;7.13;;;4.20;;
17091;SDS011;8661;45.700;4.880;2023-04-08T06:28:41;4.90;;;3.83;;
17091;SDS011;8661;45.700;4.880;2023-04-08T06:31:08;7.60;;;4.30;;
17091;SDS011;8661;45.700;4.880;2023-04-08T06:33:37;7.17;;;4.40;;
17091;SDS011;8661;45.700;4.880;2023-04-08T06:36:04;4.70;;;4.10;;
17091;SDS011;8661;45.700;4.880;2023-04-08T06:38:32;5.27;;;3.80;;
17091;SDS011;8661;45.700;4.880;2023-04-08T06:41:03;6.00;;;4.27;;
17091;SDS011;8661;45.700;4.880;2023-04-08T06:43:30;5.17;;;3.90;;
17091;SDS011;8661;45.700;4.880;2023-04-08T06:45:57;5.30;;;4.30;;
17091;SDS011;8661;45.700;4.880;2023-04-08T06:48:24;4.37;;;3.83;;
17091;SDS011;8661;45.700;4.880;2023-04-08T06:50:55;5.53;;;4.13;;
17091;SDS011;8661;45.700;4.880;2023-04-08T06:53:28;5.20;;;3.97;;
17091;SDS011;8661;45.700;4.880;2023-04-08T06:55:56;5.80;;;4.03;;
17091;SDS011;8661;45.700;4.880;2023-04-08T06:58:23;7.27;;;3.60;;
17091;SDS011;8661;45.700;4.880;2023-04-08T07:00:52;4.00;;;3.60;;
17091;SDS011;8661;45.700;4.880;2023-04-08T07:03:35;5.63;;;3.93;;
17091;SDS011;8661;45.700;4.880;2023-04-08T07:06:15;4.90;;;4.03;;
17091;SDS011;8661;45.700;4.880;2023-04-08T07:08:41;5.40;;;4.10;;
17091;SDS011;8661;45.700;4.880;2023-04-08T07:11:09;4.87;;;3.73;;
17091;SDS011;8661;45.700;4.880;2023-04-08T07:13:36;6.80;;;4.37;;
17091;SDS011;8661;45.700;4.880;2023-04-08T07:16:06;6.00;;;4.43;;
17091;SDS011;8661;45.700;4.880;2023-04-08T07:18:33;7.40;;;4.30;;
17091;SDS011;8661;45.700;4.880;2023-04-08T07:21:00;6.10;;;4.30;;
17091;SDS011;8661;45.700;4.880;2023-04-08T07:23:28;6.87;;;4.37;;
17091;SDS011;8661;45.700;4.880;2023-04-08T07:26:00;5.77;;;4.33;;
17091;SDS011;8661;45.700;4.880;2023-04-08T07:28:27;6.40;;;4.33;;
17091;SDS011;8661;45.700;4.880;2023-04-08T07:30:54;5.23;;;4.30;;
17091;SDS011;8661;45.700;4.880;2023-04-08T07:33:21;5.03;;;4.23;;
17091;SDS011;8661;45.700;4.880;2023-04-08T07:35:48;9.90;;;4.60;;
17091;SDS011;8661;45.700;4.880;2023-04-08T07:38:18;4.60;;;4.10;;
17091;SDS011;8661;45.700;4.880;2023-04-08T07:40:46;6.40;;;4.47;;
17091;SDS011;8661;45.700;4.880;2023-04-08T07:43:13;4.80;;;4.00;;
17091;SDS011;8661;45.700;4.880;2023-04-08T07:45:40;5.73;;;4.30;;
17091;SDS011;8661;45.700;4.880;2023-04-08T07:48:07;6.00;;;4.30;;
17091;SDS011;8661;45.700;4.880;2023-04-08T07:50:37;7.07;;;4.77;;
17091;SDS011;8661;45.700;4.880;2023-04-08T07:53:04;5.63;;;4.63;;
17091;SDS011;8661;45.700;4.880;2023-04-08T07:55:32;4.87;;;3.87;;
17091;SDS011;8661;45.700;4.880;2023-04-08T07:58:00;9.73;;;5.13;;
17091;SDS011;8661;45.700;4.880;2023-04-08T08:00:27;5.87;;;4.23;;
17091;SDS011;8661;45.700;4.880;2023-04-08T08:02:55;4.80;;;4.27;;
17091;SDS011;8661;45.700;4.880;2023-04-08T08:05:22;6.57;;;4.40;;
17091;SDS011;8661;45.700;4.880;2023-04-08T08:07:49;5.60;;;4.13;;
17091;SDS011;8661;45.700;4.880;2023-04-08T08:10:16;5.93;;;3.97;;
17091;SDS011;8661;45.700;4.880;2023-04-08T08:12:43;7.87;;;4.90;;
17091;SDS011;8661;45.700;4.880;2023-04-08T08:15:11;8.00;;;4.43;;
17091;SDS011;8661;45.700;4.880;2023-04-08T08:17:39;6.40;;;4.40;;
17091;SDS011;8661;45.700;4.880;2023-04-08T08:20:09;6.47;;;5.03;;
17091;SDS011;8661;45.700;4.880;2023-04-08T08:22:39;6.17;;;4.37;;
17091;SDS011;8661;45.700;4.880;2023-04-08T08:25:06;6.07;;;4.53;;
17091;SDS011;8661;45.700;4.880;2023-04-08T08:27:34;10.40;;;4.83;;
17091;SDS011;8661;45.700;4.880;2023-04-08T08:30:01;6.30;;;4.53;;
17091;SDS011;8661;45.700;4.880;2023-04-08T08:32:30;5.50;;;4.27;;
17091;SDS011;8661;45.700;4.880;2023-04-08T08:34:57;6.47;;;4.17;;
17091;SDS011;8661;45.700;4.880;2023-04-08T08:37:24;6.00;;;4.90;;
17091;SDS011;8661;45.700;4.880;2023-04-08T08:39:51;6.40;;;4.27;;
17091;SDS011;8661;45.700;4.880;2023-04-08T08:42:18;5.43;;;3.87;;
17091;SDS011;8661;45.700;4.880;2023-04-08T08:44:46;5.20;;;4.03;;
17091;SDS011;8661;45.700;4.880;2023-04-08T08:47:13;8.43;;;4.07;;
17091;SDS011;8661;45.700;4.880;2023-04-08T08:49:42;6.00;;;4.23;;
17091;SDS011;8661;45.700;4.880;2023-04-08T08:52:10;7.23;;;4.60;;
17091;SDS011;8661;45.700;4.880;2023-04-08T08:54:41;4.70;;;4.20;;
17091;SDS011;8661;45.700;4.880;2023-04-08T08:57:15;5.20;;;4.33;;
17091;SDS011;8661;45.700;4.880;2023-04-08T08:59:44;5.03;;;3.93;;
17091;SDS011;8661;45.700;4.880;2023-04-08T09:02:25;5.30;;;3.90;;
17091;SDS011;8661;45.700;4.880;2023-04-08T09:04:56;5.53;;;3.77;;
17091;SDS011;8661;45.700;4.880;2023-04-08T09:07:25;7.13;;;3.80;;
17091;SDS011;8661;45.700;4.880;2023-04-08T09:09:53;5.37;;;3.70;;
17091;SDS011;8661;45.700;4.880;2023-04-08T09:12:21;4.10;;;3.40;;
17091;SDS011;8661;45.700;4.880;2023-04-08T09:14:48;5.67;;;4.13;;
17091;SDS011;8661;45.700;4.880;2023-04-08T09:17:31;4.30;;;3.67;;
17091;SDS011;8661;45.700;4.880;2023-04-08T09:20:05;4.53;;;4.03;;
17091;SDS011;8661;45.700;4.880;2023-04-08T09:25:23;3.83;;;3.43;;
17091;SDS011;8661;45.700;4.880;2023-04-08T09:27:51;4.73;;;3.33;;
17091;SDS011;8661;45.700;4.880;2023-04-08T09:30:19;4.23;;;3.80;;
17091;SDS011;8661;45.700;4.880;2023-04-08T09:32:50;5.57;;;3.40;;
17091;SDS011;8661;45.700;4.880;2023-04-08T09:35:19;5.47;;;3.13;;
17091;SDS011;8661;45.700;4.880;2023-04-08T09:37:47;4.23;;;3.03;;
17091;SDS011;8661;45.700;4.880;2023-04-08T09:40:15;3.03;;;2.40;;
17091;SDS011;8661;45.700;4.880;2023-04-08T09:42:44;4.17;;;2.77;;
17091;SDS011;8661;45.700;4.880;2023-04-08T09:45:15;3.33;;;2.60;;
17091;SDS011;8661;45.700;4.880;2023-04-08T09:47:43;3.40;;;2.63;;
17091;SDS011;8661;45.700;4.880;2023-04-08T09:50:23;4.00;;;2.90;;
17091;SDS011;8661;45.700;4.880;2023-04-08T09:52:52;4.23;;;3.27;;
17091;SDS011;8661;45.700;4.880;2023-04-08T09:55:26;3.50;;;2.87;;
17091;SDS011;8661;45.700;4.880;2023-04-08T09:57:57;6.07;;;3.00;;
17091;SDS011;8661;45.700;4.880;2023-04-08T10:00:29;4.83;;;3.10;;
17091;SDS011;8661;45.700;4.880;2023-04-08T10:03:02;3.63;;;3.00;;
17091;SDS011;8661;45.700;4.880;2023-04-08T10:05:37;3.27;;;2.97;;
17091;SDS011;8661;45.700;4.880;2023-04-08T10:08:05;4.80;;;3.43;;
17091;SDS011;8661;45.700;4.880;2023-04-08T10:10:33;4.47;;;2.90;;
17091;SDS011;8661;45.700;4.880;2023-04-08T10:13:01;3.93;;;2.80;;
17091;SDS011;8661;45.700;4.880;2023-04-08T10:15:29;3.40;;;2.77;;
17091;SDS011;8661;45.700;4.880;2023-04-08T10:21:03;3.57;;;2.60;;
17091;SDS011;8661;45.700;4.880;2023-04-08T10:26:29;3.77;;;2.70;;
17091;SDS011;8661;45.700;4.880;2023-04-08T10:31:58;4.80;;;2.90;;
17091;SDS011;8661;45.700;4.880;2023-04-08T10:34:25;3.63;;;2.70;;
17091;SDS011;8661;45.700;4.880;2023-04-08T10:36:54;2.40;;;2.20;;
17091;SDS011;8661;45.700;4.880;2023-04-08T10:39:23;3.30;;;2.53;;
17091;SDS011;8661;45.700;4.880;2023-04-08T10:41:51;3.30;;;2.30;;
17091;SDS011;8661;45.700;4.880;2023-04-08T10:44:18;4.50;;;2.80;;
17091;SDS011;8661;45.700;4.880;2023-04-08T10:46:47;3.77;;;2.87;;
17091;SDS011;8661;45.700;4.880;2023-04-08T10:49:15;5.20;;;2.60;;
17091;SDS011;8661;45.700;4.880;2023-04-08T10:51:46;5.53;;;2.30;;
17091;SDS011;8661;45.700;4.880;2023-04-08T10:54:15;2.90;;;1.97;;
17091;SDS011;8661;45.700;4.880;2023-04-08T10:56:49;2.33;;;2.03;;
17091;SDS011;8661;45.700;4.880;2023-04-08T10:59:26;5.33;;;2.20;;
17091;SDS011;8661;45.700;4.880;2023-04-08T11:01:54;3.70;;;2.20;;
17091;SDS011;8661;45.700;4.880;2023-04-08T11:04:24;3.73;;;2.13;;
17091;SDS011;8661;45.700;4.880;2023-04-08T11:06:52;2.87;;;2.37;;
17091;SDS011;8661;45.700;4.880;2023-04-08T11:09:24;6.17;;;2.33;;
17091;SDS011;8661;45.700;4.880;2023-04-08T11:11:51;8.30;;;2.20;;
17091;SDS011;8661;45.700;4.880;2023-04-08T11:14:19;4.60;;;2.30;;
17091;SDS011;8661;45.700;4.880;2023-04-08T11:16:46;3.33;;;1.97;;
17091;SDS011;8661;45.700;4.880;2023-04-08T11:19:13;5.47;;;3.20;;
17091;SDS011;8661;45.700;4.880;2023-04-08T11:21:40;2.63;;;1.90;;
17091;SDS011;8661;45.700;4.880;2023-04-08T11:24:11;3.63;;;1.53;;
17091;SDS011;8661;45.700;4.880;2023-04-08T11:26:39;2.30;;;1.70;;
17091;SDS011;8661;45.700;4.880;2023-04-08T11:29:08;5.40;;;1.90;;
17091;SDS011;8661;45.700;4.880;2023-04-08T11:31:38;2.93;;;1.70;;
17091;SDS011;8661;45.700;4.880;2023-04-08T11:34:06;3.43;;;2.20;;
17091;SDS011;8661;45.700;4.880;2023-04-08T11:36:38;3.33;;;2.33;;
17091;SDS011;8661;45.700;4.880;2023-04-08T11:39:06;4.20;;;1.90;;
17091;SDS011;8661;45.700;4.880;2023-04-08T11:41:37;3.23;;;1.97;;
17091;SDS011;8661;45.700;4.880;2023-04-08T11:44:06;1.90;;;1.70;;
17091;SDS011;8661;45.700;4.880;2023-04-08T11:46:33;2.60;;;1.87;;
17091;SDS011;8661;45.700;4.880;2023-04-08T11:49:01;3.40;;;1.60;;
17091;SDS011;8661;45.700;4.880;2023-04-08T11:51:30;2.93;;;2.30;;
17091;SDS011;8661;45.700;4.880;2023-04-08T11:53:58;5.37;;;3.20;;
17091;SDS011;8661;45.700;4.880;2023-04-08T11:56:27;7.20;;;2.50;;
17091;SDS011;8661;45.700;4.880;2023-04-08T11:58:59;5.07;;;1.67;;
17091;SDS011;8661;45.700;4.880;2023-04-08T12:01:26;3.77;;;1.93;;
17091;SDS011;8661;45.700;4.880;2023-04-08T12:03:53;10.03;;;5.53;;
17091;SDS011;8661;45.700;4.880;2023-04-08T12:06:21;6.43;;;3.40;;
17091;SDS011;8661;45.700;4.880;2023-04-08T12:08:48;11.27;;;2.40;;
17091;SDS011;8661;45.700;4.880;2023-04-08T12:11:18;7.33;;;2.30;;
17091;SDS011;8661;45.700;4.880;2023-04-08T12:13:49;7.60;;;3.57;;
17091;SDS011;8661;45.700;4.880;2023-04-08T12:16:20;3.63;;;2.30;;
17091;SDS011;8661;45.700;4.880;2023-04-08T12:18:47;1.70;;;1.30;;
17091;SDS011;8661;45.700;4.880;2023-04-08T12:21:14;1.40;;;1.20;;
17091;SDS011;8661;45.700;4.880;2023-04-08T12:23:41;1.90;;;1.40;;
17091;SDS011;8661;45.700;4.880;2023-04-08T12:26:08;2.77;;;1.63;;
17091;SDS011;8661;45.700;4.880;2023-04-08T12:28:35;5.00;;;1.50;;
17091;SDS011;8661;45.700;4.880;2023-04-08T12:31:02;1.93;;;1.53;;
17091;SDS011;8661;45.700;4.880;2023-04-08T12:33:31;2.50;;;1.53;;
17091;SDS011;8661;45.700;4.880;2023-04-08T12:36:01;2.43;;;2.00;;
17091;SDS011;8661;45.700;4.880;2023-04-08T12:38:28;8.07;;;1.93;;
17091;SDS011;8661;45.700;4.880;2023-04-08T12:40:55;2.33;;;1.70;;
17091;SDS011;8661;45.700;4.880;2023-04-08T12:43:22;4.93;;;1.73;;
17091;SDS011;8661;45.700;4.880;2023-04-08T12:45:49;2.50;;;1.90;;
17091;SDS011;8661;45.700;4.880;2023-04-08T12:48:16;2.20;;;2.00;;
17091;SDS011;8661;45.700;4.880;2023-04-08T12:50:44;2.60;;;2.03;;
17091;SDS011;8661;45.700;4.880;2023-04-08T12:53:11;2.50;;;2.00;;
17091;SDS011;8661;45.700;4.880;2023-04-08T12:55:38;2.97;;;1.70;;
17091;SDS011;8661;45.700;4.880;2023-04-08T12:58:05;3.17;;;1.90;;
17091;SDS011;8661;45.700;4.880;2023-04-08T13:00:32;2.63;;;1.60;;
17091;SDS011;8661;45.700;4.880;2023-04-08T13:03:01;2.90;;;1.70;;
17091;SDS011;8661;45.700;4.880;2023-04-08T13:05:29;6.20;;;2.27;;
17091;SDS011;8661;45.700;4.880;2023-04-08T13:07:57;5.97;;;1.83;;
17091;SDS011;8661;45.700;4.880;2023-04-08T13:10:24;3.53;;;2.30;;
17091;SDS011;8661;45.700;4.880;2023-04-08T13:12:51;2.40;;;1.77;;
17091;SDS011;8661;45.700;4.880;2023-04-08T13:15:18;2.47;;;1.50;;
17091;SDS011;8661;45.700;4.880;2023-04-08T13:17:47;2.80;;;1.30;;
17091;SDS011;8661;45.700;4.880;2023-04-08T13:20:15;2.00;;;1.30;;
17091;SDS011;8661;45.700;4.880;2023-04-08T13:22:42;6.23;;;1.30;;
17091;SDS011;8661;45.700;4.880;2023-04-08T13:25:10;1.83;;;1.17;;
17091;SDS011;8661;45.700;4.880;2023-04-08T13:27:37;4.27;;;1.40;;
17091;SDS011;8661;45.700;4.880;2023-04-08T13:30:04;1.50;;;1.40;;
17091;SDS011;8661;45.700;4.880;2023-04-08T13:32:32;1.87;;;1.10;;
17091;SDS011;8661;45.700;4.880;2023-04-08T13:34:59;2.23;;;1.23;;
17091;SDS011;8661;45.700;4.880;2023-04-08T13:37:26;2.20;;;1.10;;
17091;SDS011;8661;45.700;4.880;2023-04-08T13:39:54;2.17;;;1.17;;
17091;SDS011;8661;45.700;4.880;2023-04-08T13:42:22;5.00;;;1.50;;
17091;SDS011;8661;45.700;4.880;2023-04-08T13:44:49;2.13;;;1.10;;
17091;SDS011;8661;45.700;4.880;2023-04-08T13:47:16;1.57;;;0.90;;
17091;SDS011;8661;45.700;4.880;2023-04-08T13:49:43;2.73;;;1.03;;
17091;SDS011;8661;45.700;4.880;2023-04-08T13:52:11;1.30;;;1.20;;
17091;SDS011;8661;45.700;4.880;2023-04-08T13:54:38;4.50;;;1.40;;
17091;SDS011;8661;45.700;4.880;2023-04-08T13:57:06;1.30;;;1.17;;
17091;SDS011;8661;45.700;4.880;2023-04-08T13:59:34;3.13;;;1.37;;
17091;SDS011;8661;45.700;4.880;2023-04-08T14:02:01;3.23;;;1.50;;
17091;SDS011;8661;45.700;4.880;2023-04-08T14:04:28;3.83;;;1.60;;
17091;SDS011;8661;45.700;4.880;2023-04-08T14:06:55;1.10;;;0.80;;
17091;SDS011;8661;45.700;4.880;2023-04-08T14:09:22;5.07;;;1.10;;
17091;SDS011;8661;45.700;4.880;2023-04-08T14:11:49;6.20;;;1.07;;
17091;SDS011;8661;45.700;4.880;2023-04-08T14:14:16;3.30;;;2.67;;
17091;SDS011;8661;45.700;4.880;2023-04-08T14:16:44;3.83;;;1.33;;
17091;SDS011;8661;45.700;4.880;2023-04-08T14:19:11;1.70;;;1.03;;
17091;SDS011;8661;45.700;4.880;2023-04-08T14:21:38;9.43;;;1.73;;
17091;SDS011;8661;45.700;4.880;2023-04-08T14:24:05;6.03;;;1.40;;
17091;SDS011;8661;45.700;4.880;2023-04-08T14:26:32;3.37;;;0.97;;
17091;SDS011;8661;45.700;4.880;2023-04-08T14:29:01;8.90;;;1.97;;
17091;SDS011;8661;45.700;4.880;2023-04-08T14:31:28;1.83;;;1.20;;
17091;SDS011;8661;45.700;4.880;2023-04-08T14:33:57;2.70;;;2.03;;
17091;SDS011;8661;45.700;4.880;2023-04-08T14:36:24;6.30;;;1.50;;
17091;SDS011;8661;45.700;4.880;2023-04-08T14:38:52;6.13;;;2.10;;
17091;SDS011;8661;45.700;4.880;2023-04-08T14:41:20;8.60;;;2.00;;
17091;SDS011;8661;45.700;4.880;2023-04-08T14:43:50;6.73;;;1.73;;
17091;SDS011;8661;45.700;4.880;2023-04-08T14:46:17;2.03;;;1.50;;
17091;SDS011;8661;45.700;4.880;2023-04-08T14:48:44;6.33;;;1.60;;
17091;SDS011;8661;45.700;4.880;2023-04-08T14:51:12;5.83;;;1.70;;
17091;SDS011;8661;45.700;4.880;2023-04-08T14:53:39;1.77;;;1.20;;
17091;SDS011;8661;45.700;4.880;2023-04-08T14:56:06;1.20;;;1.10;;
17091;SDS011;8661;45.700;4.880;2023-04-08T14:58:34;3.40;;;1.37;;
17091;SDS011;8661;45.700;4.880;2023-04-08T15:01:01;1.73;;;1.10;;
17091;SDS011;8661;45.700;4.880;2023-04-08T15:03:28;1.53;;;1.00;;
17091;SDS011;8661;45.700;4.880;2023-04-08T15:05:54;2.13;;;1.27;;
17091;SDS011;8661;45.700;4.880;2023-04-08T15:08:23;1.63;;;1.20;;
17091;SDS011;8661;45.700;4.880;2023-04-08T15:10:50;3.13;;;1.07;;
17091;SDS011;8661;45.700;4.880;2023-04-08T15:13:17;3.03;;;1.10;;
17091;SDS011;8661;45.700;4.880;2023-04-08T15:15:47;2.33;;;1.10;;
17091;SDS011;8661;45.700;4.880;2023-04-08T15:18:13;1.50;;;0.90;;